CheckWX is a tool to help pilots better visualize weather data.  It is not intended as a substitute for an official pre-flight weather briefing.

12:01:05 UTC

KRUE METAR
Russellville Regional Airport
Russellville, Arkansas, USA
Current

8 mins ago

KRUE 171153Z AUTO 00000KT 8SM CLR 01/M01 A3009 RMK AO2 SLP187 T00061006 10011 20000 58007 $
Observed
Nov-17 @ 11:53 UTC
Visibility
8 SM
Flight Rules
VFR
Cloud Levels
  • Clear skies
Temperature
C / 34°F
Dewpoint
-1°C / 30°F
Humidity
87%
Altimeter
30.09" Hg
Pressure
1018.92 hPa
Previous

1 hour ago

KRUE 171053Z AUTO 00000KT 8SM CLR 00/M01 A3009 RMK AO2 SLP189 T00001011 $
Observed
Nov-17 @ 10:53 UTC
Visibility
8 SM
Flight Rules
VFR
Cloud Levels
  • Clear skies
Temperature
C / 32°F
Dewpoint
-1°C / 30°F
Humidity
93%
Altimeter
30.09" Hg
Pressure
1018.92 hPa
Previous

2 hours ago

KRUE 170953Z AUTO 00000KT 9SM CLR 01/M01 A3010 RMK AO2 SLP190 T00061006 $
Observed
Nov-17 @ 09:53 UTC
Visibility
9 SM
Flight Rules
VFR
Cloud Levels
  • Clear skies
Temperature
C / 34°F
Dewpoint
-1°C / 30°F
Humidity
87%
Altimeter
30.1" Hg
Pressure
1019.32 hPa